This is the latest recevied weather packets stored in our database for station/object K3MV-13. If no packets are shown the sender has not sent any weather packets the latest 1 day(s).
| Time | Temp. | Humidity | Pressure | Rain* | Wind** | Luminosity | Snow |
|---|---|---|---|---|---|---|---|
| 1777983763 | 17.22° C | 57% | 1011.4 hPa | 0 mm | 1.79 m/s, 266° | 250 W/m² | - |
| 1777983460 | 16.67° C | 60% | 1011.3 hPa | 0 mm | 0.89 m/s, 316° | 231 W/m² | - |
| 1777983156 | 16.67° C | 60% | 1011.4 hPa | 0 mm | 0.89 m/s, 259° | 213 W/m² | - |
| 1777982852 | 16.67° C | 59% | 1011.7 hPa | 0 mm | 2.24 m/s, 200° | 158 W/m² | - |
| 1777982549 | 16.67° C | 59% | 1011.4 hPa | 0 mm | 0.89 m/s, 224° | 136 W/m² | - |
| 1777982247 | 16.67° C | 60% | 1011.5 hPa | 0 mm | 0.89 m/s, 255° | 161 W/m² | - |
| 1777981945 | 16.67° C | 60% | 1011.6 hPa | 0 mm | 0.45 m/s, 184° | 157 W/m² | - |
| 1777981642 | 16.11° C | 62% | 1011.7 hPa | 0 mm | 0.89 m/s, 213° | 143 W/m² | - |
| 1777981338 | 16.11° C | 61% | 1011.7 hPa | 0 mm | 0.45 m/s, 161° | 124 W/m² | - |
| 1777981035 | 16.11° C | 62% | 1011.7 hPa | 0 mm | 0.45 m/s, 175° | 106 W/m² | - |
| 1777980732 | 15.56° C | 64% | 1011.8 hPa | 0 mm | 0.89 m/s, 306° | 94 W/m² | - |
| 1777980428 | 15° C | 65% | 1011.7 hPa | 0 mm | 0.89 m/s, 188° | 80 W/m² | - |
| 1777980126 | 15.56° C | 65% | 1011.8 hPa | 0 mm | 1.79 m/s, 211° | 46 W/m² | - |
| 1777979825 | 15.56° C | 62% | 1011.9 hPa | 0 mm | 1.79 m/s, 247° | 56 W/m² | - |
| 1777979521 | 15.56° C | 62% | 1011.8 hPa | 0 mm | 0.89 m/s, 220° | 26 W/m² | - |
| 1777979217 | 15.56° C | 62% | 1011.5 hPa | 0 mm | 1.34 m/s, 228° | 30 W/m² | - |
| 1777978915 | 15.56° C | 61% | 1011.6 hPa | 0 mm | 2.24 m/s, 233° | 43 W/m² | - |
| 1777978611 | 15.56° C | 62% | 1011.6 hPa | 0 mm | 1.34 m/s, 235° | 28 W/m² | - |
| 1777978307 | 15.56° C | 62% | 1011.5 hPa | 0 mm | 1.79 m/s, 266° | 16 W/m² | - |
| 1777978004 | 15.56° C | 62% | 1011.4 hPa | 0 mm | 1.34 m/s, 229° | 7 W/m² | - |
| 1777977702 | 15° C | 63% | 1011.4 hPa | 0 mm | 0.89 m/s, 199° | 7 W/m² | - |
| 1777977398 | 15° C | 63% | 1011.3 hPa | 0 mm | 1.79 m/s, 233° | 4 W/m² | - |
| 1777977096 | 15° C | 64% | 1011.3 hPa | 0 mm | 0.89 m/s, 171° | 3 W/m² | - |
| 1777976793 | 15° C | 65% | 1011.2 hPa | 0 mm | 1.79 m/s, 237° | 3 W/m² | - |
| 1777976490 | 15° C | 65% | 1011 hPa | 0 mm | 1.34 m/s, 252° | 3 W/m² | - |
* Rain latest hour (hover to see other rain measurements)
** Current wind speed in m/s (hover to see current wind gust speed)